Time;durP1;ratioP1;P1;durP2;ratioP2;P2;SDS_P1;SDS_P2;PMS_P1;PMS_P2;Temp;Humidity;BMP_temperature;BMP_pressure;BME280_temperature;BME280_humidity;BME280_pressure;Samples;Min_cycle;Max_cycle;Signal;HPM_P1;HPM_P2
2022/03/12 00:00:56;;;;;;;5.50;4.60;;;;;;;19.50;33.27;102285.84;5053458;28;20041;-82
2022/03/12 00:03:24;;;;;;;7.07;5.30;;;;;;;19.50;33.21;102293.88;5051835;28;20063;-82
2022/03/12 00:05:59;;;;;;;7.82;5.78;;;;;;;19.50;33.09;102299.25;5051604;28;20049;-82
2022/03/12 00:08:42;;;;;;;6.57;5.13;;;;;;;19.50;32.93;102299.25;5057926;28;20381;-83
2022/03/12 00:11:12;;;;;;;7.68;6.03;;;;;;;19.49;32.88;102297.53;5056360;28;20084;-83
2022/03/12 00:13:40;;;;;;;6.68;5.18;;;;;;;19.50;32.79;102301.09;5057884;28;20045;-83
2022/03/12 00:16:12;;;;;;;9.35;6.15;;;;;;;19.49;32.73;102296.69;5057453;28;20060;-82
2022/03/12 00:18:46;;;;;;;6.93;5.40;;;;;;;19.50;32.78;102298.41;5058324;28;20053;-83
2022/03/12 00:21:15;;;;;;;7.13;5.38;;;;;;;19.50;32.65;102298.41;5056895;28;20045;-83
2022/03/12 00:23:49;;;;;;;7.07;5.45;;;;;;;19.49;32.65;102292.19;5055137;28;20053;-83
2022/03/12 00:26:23;;;;;;;7.82;6.05;;;;;;;19.50;32.59;102293.03;5057155;28;20045;-83
2022/03/12 00:28:53;;;;;;;7.78;5.30;;;;;;;19.49;32.62;102294.84;5058256;28;20392;-82
2022/03/12 00:31:22;;;;;;;7.25;5.60;;;;;;;19.49;32.66;102286.81;5057697;28;20523;-82
2022/03/12 00:33:52;;;;;;;7.20;5.38;;;;;;;19.49;32.50;102294.84;5056487;28;20041;-82
2022/03/12 00:36:19;;;;;;;8.00;5.25;;;;;;;19.49;32.46;102288.63;5056468;28;20049;-81
2022/03/12 00:38:48;;;;;;;7.70;5.53;;;;;;;19.48;32.40;102290.41;5055486;28;20389;-81
2022/03/12 00:41:16;;;;;;;6.90;5.65;;;;;;;19.49;32.37;102291.31;5055425;28;20060;-81
2022/03/12 00:43:44;;;;;;;7.65;5.72;;;;;;;19.48;32.44;102290.41;5057017;28;20108;-81
2022/03/12 00:46:12;;;;;;;6.15;5.55;;;;;;;19.49;32.42;102288.63;5056380;28;20048;-82
2022/03/12 00:48:41;;;;;;;6.63;5.38;;;;;;;19.49;32.34;102291.31;5054588;28;20412;-82
2022/03/12 00:51:10;;;;;;;6.65;5.30;;;;;;;19.48;32.55;102290.41;5056029;28;20052;-82
2022/03/12 00:53:39;;;;;;;6.20;5.03;;;;;;;19.47;32.12;102294.06;5056386;28;20044;-82
2022/03/12 00:56:09;;;;;;;7.43;6.00;;;;;;;19.48;32.25;102292.25;5057529;28;20068;-82
2022/03/12 00:58:37;;;;;;;6.80;6.10;;;;;;;19.49;32.26;102294.00;5056092;28;20049;-82
2022/03/12 01:01:05;;;;;;;6.38;5.10;;;;;;;19.48;32.18;102282.38;5057001;28;20056;-82
2022/03/12 01:03:33;;;;;;;6.90;5.80;;;;;;;19.48;32.20;102286.88;5057254;28;20045;-82
2022/03/12 01:06:03;;;;;;;7.20;5.68;;;;;;;19.48;32.18;102289.56;5055947;28;20052;-82
2022/03/12 01:08:31;;;;;;;6.68;5.22;;;;;;;19.47;32.01;102285.16;5056294;28;20045;-82
2022/03/12 01:11:03;;;;;;;7.13;5.57;;;;;;;19.47;32.00;102283.34;5056206;28;20049;-82
2022/03/12 01:13:31;;;;;;;8.75;5.85;;;;;;;19.46;31.99;102289.69;5057028;28;20468;-82
2022/03/12 01:15:58;;;;;;;6.43;5.55;;;;;;;19.48;32.23;102284.19;5054900;28;20048;-82
2022/03/12 01:18:26;;;;;;;14.90;6.28;;;;;;;19.48;32.00;102281.50;5054515;28;20049;-82
2022/03/12 01:20:54;;;;;;;7.00;5.43;;;;;;;19.47;32.14;102286.03;5055904;28;20045;-82
2022/03/12 01:23:24;;;;;;;8.05;5.63;;;;;;;19.47;32.07;102283.34;5054409;28;20049;-82
2022/03/12 01:25:53;;;;;;;7.22;5.90;;;;;;;19.48;31.72;102281.50;5056113;28;20044;-82
2022/03/12 01:28:21;;;;;;;6.95;5.80;;;;;;;19.47;31.87;102280.66;5054042;28;20048;-82
2022/03/12 01:30:49;;;;;;;6.05;5.20;;;;;;;19.48;31.68;102278.81;5056182;28;20045;-82
2022/03/12 01:33:17;;;;;;;7.13;5.80;;;;;;;19.48;31.97;102279.69;5056235;28;20052;-83
2022/03/12 01:35:45;;;;;;;6.88;5.38;;;;;;;19.48;31.80;102279.69;5055695;28;20051;-83
2022/03/12 01:38:13;;;;;;;7.68;6.10;;;;;;;19.47;31.92;102272.59;5055388;28;20045;-83
2022/03/12 01:40:40;;;;;;;7.25;6.22;;;;;;;19.48;32.02;102273.44;5055686;28;20048;-83
2022/03/12 01:43:08;;;;;;;6.28;5.63;;;;;;;19.49;31.87;102264.44;5056267;28;20045;-83
2022/03/12 01:45:36;;;;;;;7.20;5.47;;;;;;;19.48;32.05;102262.69;5055699;28;20044;-83
2022/03/12 01:48:06;;;;;;;7.55;5.75;;;;;;;19.48;32.02;102252.81;5056069;28;20396;-83
2022/03/12 01:50:36;;;;;;;8.05;5.70;;;;;;;19.48;31.99;102247.44;5054264;28;20048;-83
2022/03/12 01:53:07;;;;;;;7.68;5.93;;;;;;;19.48;32.07;102242.06;5056625;28;20041;-83
2022/03/12 01:55:39;;;;;;;6.88;5.95;;;;;;;19.48;32.14;102250.13;5056593;28;20082;-83
2022/03/12 01:58:08;;;;;;;7.72;6.28;;;;;;;19.48;32.06;102241.22;5055837;28;20116;-82
2022/03/12 02:00:43;;;;;;;6.55;5.70;;;;;;;19.49;32.13;102242.97;5056447;28;20052;-82
2022/03/12 02:03:12;;;;;;;8.73;6.07;;;;;;;19.48;32.05;102241.22;5055720;28;20048;-84
2022/03/12 02:05:41;;;;;;;6.63;5.90;;;;;;;19.47;32.00;102235.00;5054718;28;20041;-83
2022/03/12 02:08:16;;;;;;;6.32;5.72;;;;;;;19.49;32.03;102240.28;5054828;28;20523;-83
2022/03/12 02:10:47;;;;;;;6.78;5.50;;;;;;;19.47;32.20;102237.66;5054669;28;20048;-84
2022/03/12 02:13:14;;;;;;;7.95;5.70;;;;;;;19.48;32.27;102235.84;5055255;28;20048;-84
2022/03/12 02:15:42;;;;;;;7.78;6.47;;;;;;;19.48;31.92;102233.16;5055137;28;20045;-84
2022/03/12 02:18:13;;;;;;;6.22;5.53;;;;;;;19.48;32.03;102222.41;5054543;28;20068;-84
2022/03/12 02:20:43;;;;;;;6.63;6.00;;;;;;;19.48;32.10;102231.34;5055197;28;20056;-84
2022/03/12 02:23:11;;;;;;;6.50;5.65;;;;;;;19.48;32.13;102223.28;5054779;28;20045;-84
2022/03/12 02:25:38;;;;;;;7.28;6.00;;;;;;;19.48;32.13;102225.09;5054842;28;20530;-84
2022/03/12 02:28:19;;;;;;;6.43;5.82;;;;;;;19.47;31.85;102226.06;5055123;28;20041;-83
2022/03/12 02:30:55;;;;;;;7.20;6.00;;;;;;;19.47;32.15;102218.88;5054918;28;20059;-83
2022/03/12 02:33:28;;;;;;;6.97;6.28;;;;;;;19.48;32.08;102214.34;5055372;28;20049;-83
2022/03/12 02:35:57;;;;;;;6.57;5.97;;;;;;;19.47;32.06;102212.63;5055381;28;20122;-82
2022/03/12 02:38:27;;;;;;;7.15;6.25;;;;;;;19.48;32.10;102214.34;5054337;28;20072;-83
2022/03/12 02:40:56;;;;;;;6.80;5.85;;;;;;;19.47;32.08;102213.50;5054882;28;20052;-82
2022/03/12 02:43:26;;;;;;;6.72;6.03;;;;;;;19.48;32.13;102214.34;5053869;28;20368;-82
2022/03/12 02:46:01;;;;;;;7.78;6.03;;;;;;;19.48;32.29;102209.00;5052611;28;20049;-82
2022/03/12 02:48:30;;;;;;;7.35;5.78;;;;;;;19.47;32.19;102218.88;5053985;28;20041;-83
2022/03/12 02:50:57;;;;;;;7.25;6.22;;;;;;;19.47;32.28;102218.00;5053699;28;20427;-83
2022/03/12 02:53:25;;;;;;;6.28;5.47;;;;;;;19.47;32.38;102220.69;5053525;28;20052;-84
2022/03/12 02:55:52;;;;;;;7.50;6.22;;;;;;;19.46;32.41;102217.16;5053905;28;20041;-83
2022/03/12 02:58:20;;;;;;;7.03;6.30;;;;;;;19.45;32.39;102214.59;5053662;28;20037;-84
2022/03/12 03:00:47;;;;;;;7.20;5.95;;;;;;;19.45;32.44;102215.44;5054384;28;20052;-84
2022/03/12 03:03:15;;;;;;;6.90;6.20;;;;;;;19.45;32.41;102220.81;5053438;28;20045;-82
2022/03/12 03:05:48;;;;;;;6.68;5.97;;;;;;;19.46;32.30;102224.34;5053485;28;20052;-83
2022/03/12 03:08:21;;;;;;;7.43;6.07;;;;;;;19.45;32.07;102225.31;5054132;28;20100;-83
2022/03/12 03:10:51;;;;;;;7.63;6.38;;;;;;;19.45;32.40;102225.31;5054322;28;20055;-83
2022/03/12 03:13:18;;;;;;;9.77;6.22;;;;;;;19.44;32.42;102223.56;5052240;28;20052;-83
2022/03/12 03:15:49;;;;;;;6.70;6.00;;;;;;;19.45;32.33;102219.94;5053681;28;20048;-82
2022/03/12 03:18:22;;;;;;;9.48;6.78;;;;;;;19.44;32.20;102223.56;5053364;28;20049;-83
2022/03/12 03:20:51;;;;;;;10.43;6.40;;;;;;;19.45;32.09;102219.94;5054006;28;20049;-83
2022/03/12 03:23:22;;;;;;;6.53;5.85;;;;;;;19.44;31.99;102229.81;5053214;28;20044;-82
2022/03/12 03:25:49;;;;;;;6.65;5.95;;;;;;;19.44;32.23;102224.44;5053645;28;20041;-83
2022/03/12 03:28:17;;;;;;;8.25;6.53;;;;;;;19.45;32.10;102222.63;5052526;28;20501;-83
2022/03/12 03:30:45;;;;;;;7.30;6.30;;;;;;;19.45;32.11;102228.88;5053198;28;20045;-83
2022/03/12 03:33:19;;;;;;;7.07;6.38;;;;;;;19.44;32.22;102227.13;5053291;28;20044;-82
2022/03/12 03:35:48;;;;;;;7.35;6.55;;;;;;;19.45;32.54;102226.19;5052126;28;20052;-82
2022/03/12 03:38:17;;;;;;;7.60;6.45;;;;;;;19.44;32.44;102228.94;5053480;28;20392;-82
2022/03/12 03:40:46;;;;;;;6.65;5.53;;;;;;;19.45;32.20;102228.88;5052876;28;20045;-82
2022/03/12 03:43:17;;;;;;;7.35;6.05;;;;;;;19.44;32.50;102231.63;5057031;28;20515;-82
2022/03/12 03:45:47;;;;;;;8.00;5.97;;;;;;;19.44;32.53;102228.94;5056192;28;20080;-82
2022/03/12 03:48:17;;;;;;;7.53;5.82;;;;;;;19.45;32.53;102230.69;5057757;28;20045;-83
2022/03/12 03:50:46;;;;;;;6.50;5.90;;;;;;;19.43;32.51;102233.47;5056944;28;20056;-83
2022/03/12 03:53:16;;;;;;;9.32;6.60;;;;;;;19.44;32.69;102220.88;5057421;28;20507;-83
2022/03/12 03:55:44;;;;;;;8.60;6.68;;;;;;;19.43;32.51;102227.22;5055680;28;20047;-83
2022/03/12 03:58:14;;;;;;;7.95;5.50;;;;;;;19.43;32.39;102224.53;5056688;28;20045;-82
2022/03/12 04:00:53;;;;;;;7.47;6.22;;;;;;;19.44;32.51;102228.94;5056904;28;20049;-82
2022/03/12 04:03:21;;;;;;;7.78;7.00;;;;;;;19.43;32.74;102224.53;5039635;28;20511;-82
2022/03/12 04:05:48;;;;;;;8.25;6.15;;;;;;;19.44;32.52;102234.31;5057061;28;20037;-82
2022/03/12 04:08:16;;;;;;;7.28;5.75;;;;;;;19.43;32.67;102224.53;5057067;28;20048;-82
2022/03/12 04:10:43;;;;;;;8.23;6.60;;;;;;;19.42;32.54;102230.88;5056569;28;20048;-82
2022/03/12 04:13:16;;;;;;;10.13;7.35;;;;;;;19.41;32.51;102213.91;5055348;28;20053;-81
2022/03/12 04:15:44;;;;;;;8.15;6.82;;;;;;;19.41;32.43;102230.03;5056630;28;20044;-82
2022/03/12 04:18:13;;;;;;;8.15;7.28;;;;;;;19.41;32.33;102226.47;5055106;28;20056;-82
2022/03/12 04:20:42;;;;;;;7.47;6.60;;;;;;;19.41;32.63;102229.16;5056995;28;20045;-82
2022/03/12 04:23:12;;;;;;;8.00;7.18;;;;;;;19.42;32.53;102225.50;5039113;28;20159;-82
2022/03/12 04:25:40;;;;;;;8.65;7.38;;;;;;;19.41;32.45;102224.66;5056317;28;20036;-82
2022/03/12 04:28:09;;;;;;;7.90;7.10;;;;;;;19.41;32.43;102227.34;5055407;28;20052;-82
2022/03/12 04:30:38;;;;;;;9.32;6.90;;;;;;;19.41;32.48;102224.66;5056249;28;20511;-83
2022/03/12 04:33:09;;;;;;;7.90;6.70;;;;;;;19.41;32.62;102224.66;5055111;28;20044;-83
2022/03/12 04:35:38;;;;;;;10.77;8.00;;;;;;;19.42;32.51;102228.19;5056927;28;20049;-83
2022/03/12 04:38:07;;;;;;;9.77;7.82;;;;;;;19.41;32.57;102227.34;5054481;28;20048;-83
2022/03/12 04:40:38;;;;;;;8.75;7.38;;;;;;;19.41;32.54;102240.78;5056875;28;20044;-83
2022/03/12 04:43:06;;;;;;;8.05;7.18;;;;;;;19.41;32.53;102239.91;5056687;28;20051;-83
2022/03/12 04:45:34;;;;;;;8.77;7.22;;;;;;;19.40;32.41;102238.16;5056231;28;20037;-83
2022/03/12 04:48:02;;;;;;;12.00;7.88;;;;;;;19.40;32.51;102235.47;5056490;28;20484;-83
2022/03/12 04:50:30;;;;;;;9.20;7.70;;;;;;;19.40;32.67;102233.66;5056579;28;20045;-83
2022/03/12 04:53:01;;;;;;;8.98;7.85;;;;;;;19.39;32.58;102234.63;5056477;28;20060;-83
2022/03/12 04:55:30;;;;;;;8.77;7.75;;;;;;;19.40;32.58;102232.78;5056377;28;20075;-82
2022/03/12 04:57:58;;;;;;;7.95;7.07;;;;;;;19.40;32.63;102238.16;5056261;28;20075;-83
2022/03/12 05:00:27;;;;;;;9.95;8.20;;;;;;;19.39;32.58;102231.94;5054309;28;20049;-83
2022/03/12 05:02:56;;;;;;;9.43;8.23;;;;;;;19.40;32.65;102235.47;5054077;28;20045;-82
2022/03/12 05:05:23;;;;;;;8.45;7.30;;;;;;;19.39;32.87;102231.94;5055824;28;20044;-81
2022/03/12 05:07:51;;;;;;;10.40;8.27;;;;;;;19.39;33.01;102240.00;5056262;28;20056;-83
2022/03/12 05:10:19;;;;;;;10.82;8.18;;;;;;;19.39;33.20;102239.13;5056328;28;20472;-87
2022/03/12 05:12:50;;;;;;;8.90;7.75;;;;;;;19.36;33.04;102236.63;5056058;28;20049;-83
2022/03/12 05:15:18;;;;;;;10.20;7.50;;;;;;;19.39;33.16;102241.81;5055903;28;20045;-83
2022/03/12 05:17:51;;;;;;;10.40;7.68;;;;;;;19.37;33.35;102246.44;5056492;28;20376;-84
2022/03/12 05:20:23;;;;;;;;;;;;;;;19.37;33.79;102254.50;5054952;28;20053;-82
2022/03/12 05:22:51;;;;;;;9.32;7.63;;;;;;;19.35;34.09;102257.25;5055647;28;19920;-84
2022/03/12 05:25:19;;;;;;;9.57;8.43;;;;;;;19.35;33.51;102262.63;5055628;28;20045;-82
2022/03/12 05:27:51;;;;;;;8.95;7.18;;;;;;;19.34;33.58;102262.75;5054016;28;20480;-83
2022/03/12 05:30:19;;;;;;;10.98;8.32;;;;;;;19.35;33.45;102272.50;5055651;28;20056;-83
2022/03/12 05:32:51;;;;;;;9.13;7.75;;;;;;;19.34;33.40;102268.09;5055126;28;20052;-82
2022/03/12 05:35:20;;;;;;;8.52;7.15;;;;;;;19.34;33.19;102270.78;5054985;28;20045;-83
2022/03/12 05:37:50;;;;;;;9.65;7.82;;;;;;;19.33;33.06;102269.06;5055595;28;20507;-84
2022/03/12 05:40:19;;;;;;;10.38;7.65;;;;;;;19.33;33.19;102278.00;5055701;28;20097;-84
2022/03/12 05:42:47;;;;;;;10.68;7.80;;;;;;;19.34;33.18;102284.22;5055031;28;20060;-84
2022/03/12 05:45:18;;;;;;;9.07;8.15;;;;;;;19.32;33.11;102276.25;5055685;28;20396;-84
2022/03/12 05:47:47;;;;;;;9.57;7.78;;;;;;;19.31;32.99;102285.25;5055183;28;20396;-84
2022/03/12 05:50:14;;;;;;;12.05;8.30;;;;;;;19.32;32.88;102288.81;5055536;28;20480;-84
2022/03/12 05:52:48;;;;;;;9.93;7.90;;;;;;;19.31;32.99;102282.56;5054523;28;20045;-83
2022/03/12 05:55:23;;;;;;;11.18;8.40;;;;;;;19.31;33.01;102279.03;5054457;28;20128;-83
2022/03/12 05:57:51;;;;;;;10.00;8.82;;;;;;;19.30;33.19;102282.69;5053750;28;20075;-83
2022/03/12 06:00:19;;;;;;;10.45;8.02;;;;;;;19.29;32.98;102281.81;5053867;28;20053;-83
2022/03/12 06:02:50;;;;;;;11.32;8.38;;;;;;;19.29;33.09;102289.03;5054627;28;20066;-83
2022/03/12 06:05:23;;;;;;;10.27;8.77;;;;;;;19.29;33.14;102291.72;5054238;28;20060;-82
2022/03/12 06:07:52;;;;;;;10.05;7.78;;;;;;;19.28;32.82;102293.50;5054035;28;20516;-82
2022/03/12 06:10:24;;;;;;;12.77;9.15;;;;;;;19.29;33.14;102294.41;5053159;28;20049;-82
2022/03/12 06:12:53;;;;;;;9.93;8.93;;;;;;;19.27;33.06;102298.00;5054997;28;20059;-82
2022/03/12 06:15:26;;;;;;;9.60;8.55;;;;;;;19.27;32.99;102297.16;5053605;28;20048;-82
2022/03/12 06:17:54;;;;;;;11.50;8.65;;;;;;;19.27;32.99;102315.94;5055300;28;20052;-82
2022/03/12 06:20:23;;;;;;;9.30;8.25;;;;;;;19.26;32.83;102295.44;5054128;28;20037;-82
2022/03/12 06:22:53;;;;;;;10.68;8.55;;;;;;;19.26;32.91;102303.50;5053424;28;20052;-82
2022/03/12 06:25:23;;;;;;;11.25;8.80;;;;;;;19.26;32.83;102317.78;5052346;28;20057;-81
2022/03/12 06:27:54;;;;;;;9.25;8.30;;;;;;;19.26;32.92;102319.59;5054003;28;20045;-81
2022/03/12 06:30:24;;;;;;;10.25;9.10;;;;;;;19.25;32.76;102321.44;5053182;28;20492;-81
2022/03/12 06:32:52;;;;;;;10.50;9.05;;;;;;;19.25;32.79;102324.13;5053948;28;20518;-81
2022/03/12 06:35:20;;;;;;;10.73;9.15;;;;;;;19.25;32.73;102332.16;5053813;28;20403;-81
2022/03/12 06:37:49;;;;;;;10.30;8.43;;;;;;;19.25;32.55;102336.69;5053986;28;20036;-81
2022/03/12 06:40:18;;;;;;;9.82;8.38;;;;;;;19.24;32.80;102342.97;5053898;28;20052;-81
2022/03/12 06:42:48;;;;;;;12.05;8.77;;;;;;;19.23;32.73;102347.50;5036148;28;20049;-82
2022/03/12 06:45:16;;;;;;;9.70;8.60;;;;;;;19.23;32.65;102360.06;5053813;28;20044;-82
2022/03/12 06:47:44;;;;;;;13.40;8.93;;;;;;;19.23;32.66;102352.00;5053556;28;20400;-83
2022/03/12 06:50:18;;;;;;;11.20;8.77;;;;;;;19.23;32.65;102354.69;5054418;28;20045;-83
2022/03/12 06:52:48;;;;;;;13.05;9.38;;;;;;;19.22;32.53;102358.34;5053972;28;20060;-82
2022/03/12 06:55:18;;;;;;;10.93;9.07;;;;;;;19.22;32.51;102355.66;5052283;28;20056;-83
2022/03/12 06:57:47;;;;;;;10.35;8.70;;;;;;;19.22;32.44;102356.50;5054278;28;20048;-82
2022/03/12 07:00:20;;;;;;;10.55;9.20;;;;;;;19.22;32.57;102366.41;5053303;28;20499;-82
2022/03/12 07:02:47;;;;;;;11.35;9.57;;;;;;;19.22;32.44;102363.72;5035335;28;20049;-83
2022/03/12 07:05:15;;;;;;;12.70;9.40;;;;;;;19.22;32.45;102369.06;5053359;28;20041;-82
2022/03/12 07:07:46;;;;;;;9.32;8.30;;;;;;;19.21;32.52;102367.34;5053638;28;20416;-82
2022/03/12 07:10:14;;;;;;;10.48;8.02;;;;;;;19.20;32.47;102358.44;5053134;28;20037;-82
2022/03/12 07:12:46;;;;;;;10.43;8.10;;;;;;;19.21;32.43;102364.69;5054131;28;20045;-82
2022/03/12 07:15:15;;;;;;;9.73;8.73;;;;;;;19.21;32.43;102370.91;5052968;28;20045;-82
2022/03/12 07:17:43;;;;;;;12.43;8.60;;;;;;;19.21;32.38;102378.09;5052605;28;20104;-82
2022/03/12 07:20:14;;;;;;;9.73;8.32;;;;;;;19.20;32.49;102377.25;5036069;28;20049;-82
2022/03/12 07:22:41;;;;;;;10.55;8.55;;;;;;;19.20;32.31;102382.59;5053875;28;20484;-82
2022/03/12 07:25:10;;;;;;;9.77;7.85;;;;;;;19.21;32.44;102384.31;5059110;28;20056;-82
2022/03/12 07:27:38;;;;;;;9.70;8.65;;;;;;;19.19;32.45;102380.84;5075252;28;20025;-82
2022/03/12 07:30:08;;;;;;;9.27;8.27;;;;;;;19.20;32.49;102396.03;5063466;28;20067;-81
2022/03/12 07:32:36;;;;;;;9.52;8.25;;;;;;;19.19;32.43;102394.28;5053418;28;20500;-82
2022/03/12 07:35:04;;;;;;;10.57;7.90;;;;;;;19.21;32.49;102399.56;5053450;28;20056;-81
2022/03/12 07:37:32;;;;;;;10.50;8.02;;;;;;;19.19;32.52;102405.03;5053610;28;20040;-81
2022/03/12 07:40:00;;;;;;;11.27;9.13;;;;;;;19.20;32.33;102398.72;5053294;28;20044;-82
2022/03/12 07:42:27;;;;;;;10.50;8.90;;;;;;;19.19;32.60;102402.34;5054280;28;20049;-82
2022/03/12 07:44:55;;;;;;;9.40;8.40;;;;;;;19.18;32.44;102397.94;5052566;28;20496;-82
2022/03/12 07:47:23;;;;;;;11.45;8.18;;;;;;;19.18;32.49;102395.25;5053258;28;20041;-82
2022/03/12 07:49:50;;;;;;;10.38;8.15;;;;;;;19.18;32.57;102397.94;5051386;28;20060;-82
2022/03/12 07:52:18;;;;;;;9.05;7.88;;;;;;;19.18;32.55;102391.69;5052716;28;20060;-82
2022/03/12 07:54:45;;;;;;;9.00;8.10;;;;;;;19.17;32.74;102398.91;5053286;28;20041;-82
2022/03/12 07:57:13;;;;;;;9.18;8.20;;;;;;;19.18;32.70;102400.63;5052709;28;20052;-82
2022/03/12 07:59:40;;;;;;;11.30;8.48;;;;;;;19.18;32.65;102395.25;5052955;28;20065;-82
2022/03/12 08:02:08;;;;;;;8.90;7.85;;;;;;;19.18;33.00;102399.75;5053006;28;20068;-82
2022/03/12 08:04:35;;;;;;;8.32;7.43;;;;;;;19.18;32.79;102400.63;5052676;28;20044;-83
2022/03/12 08:07:03;;;;;;;9.18;7.97;;;;;;;19.18;32.96;102407.81;5051386;28;20049;-83
2022/03/12 08:09:32;;;;;;;10.60;8.90;;;;;;;19.18;32.96;102408.66;5053216;28;20049;-83
2022/03/12 08:12:00;;;;;;;13.63;8.18;;;;;;;19.17;32.93;102404.25;5051975;28;20041;-81
2022/03/12 08:14:28;;;;;;;8.38;7.47;;;;;;;19.17;32.89;102401.59;5052670;28;20103;-81
2022/03/12 08:16:55;;;;;;;10.43;8.23;;;;;;;19.17;32.88;102406.94;5052585;28;20049;-82
2022/03/12 08:19:24;;;;;;;10.52;7.93;;;;;;;19.17;32.90;102406.94;5052566;28;20045;-82
2022/03/12 08:21:52;;;;;;;9.30;7.28;;;;;;;19.19;32.97;102406.84;5051490;28;20052;-82
2022/03/12 08:24:21;;;;;;;11.77;8.50;;;;;;;19.19;32.98;102404.16;5053630;28;20395;-82
2022/03/12 08:26:49;;;;;;;8.55;7.30;;;;;;;19.19;32.75;102401.47;5053483;28;20041;-82
2022/03/12 08:29:18;;;;;;;11.68;9.63;;;;;;;19.12;30.80;102400.09;5055479;28;20048;-82
2022/03/12 08:31:51;;;;;;;12.10;10.90;;;;;;;18.80;30.11;102396.66;5056208;28;20045;-82
2022/03/12 08:34:28;;;;;;;12.38;10.88;;;;;;;18.34;30.45;102410.03;5056179;28;20049;-82
2022/03/12 08:36:55;;;;;;;10.00;9.02;;;;;;;18.18;31.17;102407.34;5056216;28;20049;-81
2022/03/12 08:39:22;;;;;;;12.40;11.10;;;;;;;18.06;31.67;102406.19;5057085;28;20047;-81
2022/03/12 08:41:50;;;;;;;14.02;10.05;;;;;;;17.97;31.92;102409.41;5056484;28;20412;-82
2022/03/12 08:44:17;;;;;;;10.82;9.68;;;;;;;17.88;31.62;102410.78;5056036;28;20053;-80
2022/03/12 08:46:46;;;;;;;11.25;10.10;;;;;;;17.78;31.83;102404.16;5056376;28;20116;-81
2022/03/12 08:49:14;;;;;;;13.57;11.68;;;;;;;17.64;31.46;102409.41;5055343;28;20049;-81
2022/03/12 08:51:42;;;;;;;12.85;11.00;;;;;;;17.62;31.68;102409.47;5056129;28;20522;-83
2022/03/12 08:54:10;;;;;;;13.57;12.15;;;;;;;17.11;31.37;102408.59;5056621;28;20044;-84
2022/03/12 08:56:38;;;;;;;12.60;11.10;;;;;;;16.89;32.36;102405.25;5054959;28;20041;-80
2022/03/12 08:59:07;;;;;;;15.52;10.93;;;;;;;16.93;32.65;102407.69;5054781;28;20052;-80
2022/03/12 09:01:36;;;;;;;11.07;9.20;;;;;;;17.18;33.29;102398.44;5055955;28;20044;-81
2022/03/12 09:04:04;;;;;;;11.25;8.48;;;;;;;17.41;34.33;102411.47;5055324;28;20049;-80
2022/03/12 09:06:35;;;;;;;9.93;7.63;;;;;;;17.63;34.23;102407.66;5056283;28;20047;-84
2022/03/12 09:09:04;;;;;;;10.50;8.00;;;;;;;17.79;34.21;102414.81;5054663;28;20049;-84
2022/03/12 09:11:32;;;;;;;10.00;8.07;;;;;;;17.92;34.05;102406.97;5054496;28;20052;-82
2022/03/12 09:13:59;;;;;;;10.57;7.20;;;;;;;18.05;33.83;102412.53;5055854;28;20068;-81
2022/03/12 09:16:27;;;;;;;9.25;7.05;;;;;;;18.15;33.59;102416.44;5055504;28;20484;-82
2022/03/12 09:18:54;;;;;;;8.80;6.55;;;;;;;18.22;33.48;102415.13;5055517;28;20044;-82
2022/03/12 09:21:22;;;;;;;10.40;6.65;;;;;;;18.29;33.29;102415.66;5056045;28;20049;-81
2022/03/12 09:23:49;;;;;;;8.75;6.55;;;;;;;18.36;33.25;102418.84;5054591;28;20053;-82
2022/03/12 09:26:19;;;;;;;9.75;7.85;;;;;;;18.40;33.14;102417.72;5053692;28;20080;-81
2022/03/12 09:28:47;;;;;;;7.72;6.68;;;;;;;18.45;33.15;102405.78;5054060;28;20052;-81
2022/03/12 09:31:15;;;;;;;9.30;6.55;;;;;;;18.49;33.07;102409.16;5053413;28;20040;-81
2022/03/12 09:33:43;;;;;;;8.98;6.63;;;;;;;18.52;33.19;102406.31;5053807;28;20041;-83
2022/03/12 09:36:10;;;;;;;9.13;6.55;;;;;;;18.56;33.07;102407.00;5053686;28;20040;-85
2022/03/12 09:38:39;;;;;;;8.85;7.30;;;;;;;18.58;33.26;102405.06;5054622;28;20045;-84
2022/03/12 09:41:07;;;;;;;8.52;6.35;;;;;;;18.60;33.11;102406.72;5054845;28;20049;-85
2022/03/12 09:43:35;;;;;;;10.77;7.30;;;;;;;18.64;33.22;102404.72;5054287;28;20040;-85
2022/03/12 09:46:02;;;;;;;8.32;6.85;;;;;;;18.65;33.32;102407.31;5055393;28;20049;-82
2022/03/12 09:48:30;;;;;;;10.07;6.97;;;;;;;18.67;33.47;102405.38;5054643;28;20045;-84
2022/03/12 09:50:58;;;;;;;8.65;6.45;;;;;;;18.69;33.38;102405.31;5054424;28;20042;-83
2022/03/12 09:53:25;;;;;;;7.82;6.25;;;;;;;18.70;33.48;102391.84;5055330;28;20048;-83
2022/03/12 09:55:53;;;;;;;6.93;6.05;;;;;;;18.70;33.38;102394.53;5054651;28;20063;-84
2022/03/12 09:58:20;;;;;;;10.75;7.10;;;;;;;18.73;33.42;102393.50;5053212;28;20044;-85
2022/03/12 10:00:50;;;;;;;13.63;6.80;;;;;;;18.72;33.44;102391.78;5053838;28;20049;-84
2022/03/12 10:03:18;;;;;;;10.25;6.72;;;;;;;18.75;33.32;102396.94;5055684;28;20060;-84
2022/03/12 10:05:46;;;;;;;8.75;6.45;;;;;;;18.75;33.39;102392.44;5055327;28;20056;-84
2022/03/12 10:08:13;;;;;;;9.27;5.93;;;;;;;18.75;33.27;102387.06;5055097;28;20053;-84
2022/03/12 10:10:40;;;;;;;6.75;6.05;;;;;;;18.76;33.47;102388.81;5055689;28;20048;-84
2022/03/12 10:13:08;;;;;;;11.50;6.35;;;;;;;18.77;33.35;102384.31;5053762;28;20044;-84
2022/03/12 10:15:35;;;;;;;10.05;6.93;;;;;;;18.78;33.42;102370.78;5055888;28;20044;-84
2022/03/12 10:18:04;;;;;;;8.35;6.40;;;;;;;18.78;33.30;102368.09;5055972;28;20049;-84
2022/03/12 10:20:33;;;;;;;6.97;6.03;;;;;;;18.80;33.38;102383.25;5055055;28;20045;-84
2022/03/12 10:23:00;;;;;;;8.52;6.07;;;;;;;18.79;33.41;102377.00;5055953;28;20045;-84
2022/03/12 10:25:28;;;;;;;10.23;7.10;;;;;;;18.80;33.35;102376.09;5055158;28;20404;-84
2022/03/12 10:27:55;;;;;;;7.18;5.60;;;;;;;18.80;33.18;102375.19;5055134;28;20495;-84
2022/03/12 10:30:23;;;;;;;7.75;6.82;;;;;;;18.81;33.41;102372.44;5053564;28;20049;-84
2022/03/12 10:32:51;;;;;;;8.32;5.97;;;;;;;18.82;33.09;102370.63;5054929;28;20392;-84
2022/03/12 10:35:20;;;;;;;7.30;5.90;;;;;;;18.82;33.20;102354.50;5054649;28;20056;-84
2022/03/12 10:37:51;;;;;;;8.65;6.70;;;;;;;18.84;33.00;102357.97;5057002;28;20052;-84
2022/03/12 10:40:27;;;;;;;8.38;5.50;;;;;;;18.84;33.23;102349.91;5056479;28;20060;-84
2022/03/12 10:42:57;;;;;;;7.75;5.82;;;;;;;18.85;33.01;102347.16;5052937;28;20072;-84
2022/03/12 10:45:32;;;;;;;7.28;5.47;;;;;;;18.86;33.09;102345.31;5054246;28;20049;-84
2022/03/12 10:48:03;;;;;;;7.43;6.05;;;;;;;18.86;32.93;102351.56;5054441;28;20049;-84
2022/03/12 10:50:34;;;;;;;7.95;5.35;;;;;;;18.87;32.99;102352.41;5053271;28;20056;-84
2022/03/12 10:53:06;;;;;;;6.85;5.75;;;;;;;18.87;32.92;102349.72;5053645;28;20052;-84
2022/03/12 10:55:36;;;;;;;7.50;5.95;;;;;;;18.88;32.65;102349.66;5054678;28;20052;-84
2022/03/12 10:58:12;;;;;;;7.10;5.53;;;;;;;18.89;32.91;102345.16;5055046;28;20053;-83
2022/03/12 11:00:51;;;;;;;7.93;6.03;;;;;;;18.89;32.73;102343.31;5054518;28;20133;-84
2022/03/12 11:03:24;;;;;;;7.95;6.22;;;;;;;18.90;32.67;102337.00;5055118;28;20045;-84
2022/03/12 11:05:55;;;;;;;6.18;5.57;;;;;;;18.89;32.84;102337.97;5055944;28;20096;-84
2022/03/12 11:08:27;;;;;;;7.07;5.82;;;;;;;18.89;32.67;102337.97;5056037;28;20053;-84
2022/03/12 11:11:06;;;;;;;6.78;5.20;;;;;;;18.90;32.54;102337.00;5055445;28;20071;-84
2022/03/12 11:13:47;;;;;;;5.72;5.10;;;;;;;18.90;32.65;102333.44;5052104;28;20045;-84
2022/03/12 11:16:21;;;;;;;8.00;5.75;;;;;;;18.91;32.53;102327.13;5053306;28;20049;-84
2022/03/12 11:18:52;;;;;;;6.82;5.22;;;;;;;18.92;32.58;102331.53;5055088;28;20055;-84
2022/03/12 11:21:37;;;;;;;6.47;5.72;;;;;;;18.91;32.58;102324.44;5055188;28;20051;-84
2022/03/12 11:24:15;;;;;;;8.90;5.97;;;;;;;18.91;32.57;102322.63;5055257;28;20041;-84
2022/03/12 11:26:46;;;;;;;6.55;5.20;;;;;;;18.91;32.55;102319.94;5035766;28;20053;-84
2022/03/12 11:29:14;;;;;;;7.05;6.00;;;;;;;18.92;32.46;102316.31;5054803;28;20055;-84
2022/03/12 11:31:48;;;;;;;7.60;6.35;;;;;;;18.92;32.49;102316.31;5054430;28;20493;-84